sensor_id;sensor_type;location;lat;lon;timestamp;pressure;altitude;pressure_sealevel;temperature;humidity
48606;BME280;8482;54.396;18.590;2022-07-03T19:49:47;101714.00;;;21.20;65.93
48606;BME280;8482;54.396;18.590;2022-07-03T19:52:13;101719.41;;;21.20;66.60
48606;BME280;8482;54.396;18.590;2022-07-03T19:54:39;101718.41;;;21.21;66.42
48606;BME280;8482;54.396;18.590;2022-07-03T19:57:07;101715.69;;;21.21;66.42
48606;BME280;8482;54.396;18.590;2022-07-03T19:59:33;101702.22;;;21.21;66.48
48606;BME280;8482;54.396;18.590;2022-07-03T20:01:59;101701.03;;;21.23;66.48
48606;BME280;8482;54.396;18.590;2022-07-03T20:04:24;101702.72;;;21.24;66.72
48606;BME280;8482;54.396;18.590;2022-07-03T20:06:50;101707.91;;;21.26;66.59
48606;BME280;8482;54.396;18.590;2022-07-03T20:09:19;101707.91;;;21.26;66.41
48606;BME280;8482;54.396;18.590;2022-07-03T20:11:49;101707.09;;;21.25;66.56
48606;BME280;8482;54.396;18.590;2022-07-03T20:14:15;101704.41;;;21.25;66.58
48606;BME280;8482;54.396;18.590;2022-07-03T20:16:47;101713.16;;;21.27;66.69
48606;BME280;8482;54.396;18.590;2022-07-03T20:19:13;101710.28;;;21.29;66.83
48606;BME280;8482;54.396;18.590;2022-07-03T20:21:43;101709.47;;;21.28;66.84
48606;BME280;8482;54.396;18.590;2022-07-03T20:24:09;101709.78;;;21.25;67.02
48606;BME280;8482;54.396;18.590;2022-07-03T20:26:55;101707.25;;;21.24;67.06
48606;BME280;8482;54.396;18.590;2022-07-03T20:29:23;101707.41;;;21.22;67.13
48606;BME280;8482;54.396;18.590;2022-07-03T20:31:50;101703.22;;;21.20;67.11
48606;BME280;8482;54.396;18.590;2022-07-03T20:34:16;101700.84;;;21.17;67.27
48606;BME280;8482;54.396;18.590;2022-07-03T20:36:43;101694.94;;;21.13;67.24
48606;BME280;8482;54.396;18.590;2022-07-03T20:39:10;101704.88;;;21.12;67.45
48606;BME280;8482;54.396;18.590;2022-07-03T20:41:37;101698.84;;;21.10;67.71
48606;BME280;8482;54.396;18.590;2022-07-03T20:44:03;101694.44;;;21.09;67.98
48606;BME280;8482;54.396;18.590;2022-07-03T20:46:30;101691.91;;;21.08;68.08
48606;BME280;8482;54.396;18.590;2022-07-03T20:48:56;101691.59;;;21.03;67.92
48606;BME280;8482;54.396;18.590;2022-07-03T20:51:22;101697.63;;;21.05;68.48
48606;BME280;8482;54.396;18.590;2022-07-03T20:53:49;101691.59;;;21.03;68.53
48606;BME280;8482;54.396;18.590;2022-07-03T20:56:16;101698.81;;;21.02;68.77
48606;BME280;8482;54.396;18.590;2022-07-03T20:58:42;101696.44;;;20.99;68.92
48606;BME280;8482;54.396;18.590;2022-07-03T21:01:08;101703.88;;;20.97;68.97
48606;BME280;8482;54.396;18.590;2022-07-03T21:03:34;101703.22;;;20.95;69.15
48606;BME280;8482;54.396;18.590;2022-07-03T21:06:00;101703.53;;;20.92;69.15
48606;BME280;8482;54.396;18.590;2022-07-03T21:08:45;101693.06;;;20.89;69.40
48606;BME280;8482;54.396;18.590;2022-07-03T21:11:12;101694.41;;;20.85;69.65
48606;BME280;8482;54.396;18.590;2022-07-03T21:13:56;101689.50;;;20.80;69.38
48606;BME280;8482;54.396;18.590;2022-07-03T21:16:22;101679.91;;;20.77;69.59
48606;BME280;8482;54.396;18.590;2022-07-03T21:18:48;101690.16;;;20.74;69.72
48606;BME280;8482;54.396;18.590;2022-07-03T21:21:14;101688.97;;;20.68;69.56
48606;BME280;8482;54.396;18.590;2022-07-03T21:23:40;101689.28;;;20.65;69.84
48606;BME280;8482;54.396;18.590;2022-07-03T21:26:06;101680.84;;;20.60;69.99
48606;BME280;8482;54.396;18.590;2022-07-03T21:28:32;101689.63;;;20.54;70.27
48606;BME280;8482;54.396;18.590;2022-07-03T21:30:57;101682.84;;;20.49;70.38
48606;BME280;8482;54.396;18.590;2022-07-03T21:33:23;101692.94;;;20.47;70.59
48606;BME280;8482;54.396;18.590;2022-07-03T21:35:49;101690.94;;;20.41;70.46
48606;BME280;8482;54.396;18.590;2022-07-03T21:38:15;101685.53;;;20.41;70.48
48606;BME280;8482;54.396;18.590;2022-07-03T21:40:41;101681.47;;;20.37;70.67
48606;BME280;8482;54.396;18.590;2022-07-03T21:43:07;101683.34;;;20.36;70.90
48606;BME280;8482;54.396;18.590;2022-07-03T21:45:33;101674.56;;;20.34;70.76
48606;BME280;8482;54.396;18.590;2022-07-03T21:47:59;101675.72;;;20.32;71.15
48606;BME280;8482;54.396;18.590;2022-07-03T21:50:25;101677.75;;;20.30;71.14
48606;BME280;8482;54.396;18.590;2022-07-03T21:52:52;101674.69;;;20.25;71.43
48606;BME280;8482;54.396;18.590;2022-07-03T21:55:18;101674.00;;;20.23;71.24
48606;BME280;8482;54.396;18.590;2022-07-03T21:57:44;101673.31;;;20.20;71.55
48606;BME280;8482;54.396;18.590;2022-07-03T22:00:13;101667.59;;;20.15;71.72
48606;BME280;8482;54.396;18.590;2022-07-03T22:02:39;101667.75;;;20.14;72.00
48606;BME280;8482;54.396;18.590;2022-07-03T22:05:06;101663.84;;;20.08;71.88
48606;BME280;8482;54.396;18.590;2022-07-03T22:07:31;101672.94;;;20.07;72.25
48606;BME280;8482;54.396;18.590;2022-07-03T22:09:58;101666.84;;;20.05;72.36
48606;BME280;8482;54.396;18.590;2022-07-03T22:12:23;101669.03;;;20.01;72.42
48606;BME280;8482;54.396;18.590;2022-07-03T22:15:08;101655.06;;;19.98;72.77
48606;BME280;8482;54.396;18.590;2022-07-03T22:17:37;101658.94;;;19.95;73.03
48606;BME280;8482;54.396;18.590;2022-07-03T22:20:06;101653.00;;;19.91;73.18
48606;BME280;8482;54.396;18.590;2022-07-03T22:22:32;101644.09;;;19.91;73.27
48606;BME280;8482;54.396;18.590;2022-07-03T22:24:59;101643.41;;;19.89;73.45
48606;BME280;8482;54.396;18.590;2022-07-03T22:27:25;101644.41;;;19.88;73.57
48606;BME280;8482;54.396;18.590;2022-07-03T22:29:51;101643.69;;;19.86;73.60
48606;BME280;8482;54.396;18.590;2022-07-03T22:32:18;101632.41;;;19.82;73.83
48606;BME280;8482;54.396;18.590;2022-07-03T22:34:45;101630.72;;;19.81;73.88
48606;BME280;8482;54.396;18.590;2022-07-03T22:37:11;101628.38;;;19.78;73.58
48606;BME280;8482;54.396;18.590;2022-07-03T22:39:38;101630.38;;;19.76;73.84
48606;BME280;8482;54.396;18.590;2022-07-03T22:42:04;101630.50;;;19.74;74.19
48606;BME280;8482;54.396;18.590;2022-07-03T22:44:31;101627.31;;;19.71;74.15
48606;BME280;8482;54.396;18.590;2022-07-03T22:46:57;101622.22;;;19.68;74.46
48606;BME280;8482;54.396;18.590;2022-07-03T22:49:23;101622.41;;;19.66;74.63
48606;BME280;8482;54.396;18.590;2022-07-03T22:51:49;101616.50;;;19.63;74.71
48606;BME280;8482;54.396;18.590;2022-07-03T22:54:16;101613.13;;;19.60;75.13
48606;BME280;8482;54.396;18.590;2022-07-03T22:56:43;101608.75;;;19.59;75.11
48606;BME280;8482;54.396;18.590;2022-07-03T22:59:12;101609.06;;;19.56;75.04
48606;BME280;8482;54.396;18.590;2022-07-03T23:01:39;101613.75;;;19.54;75.27
48606;BME280;8482;54.396;18.590;2022-07-03T23:04:05;101613.06;;;19.52;75.23
48606;BME280;8482;54.396;18.590;2022-07-03T23:06:31;101598.25;;;19.48;75.40
48606;BME280;8482;54.396;18.590;2022-07-03T23:08:57;101604.31;;;19.50;75.56
48606;BME280;8482;54.396;18.590;2022-07-03T23:11:23;101592.00;;;19.48;75.63
48606;BME280;8482;54.396;18.590;2022-07-03T23:13:49;101593.19;;;19.45;75.71
48606;BME280;8482;54.396;18.590;2022-07-03T23:16:15;101596.19;;;19.42;75.88
48606;BME280;8482;54.396;18.590;2022-07-03T23:18:40;101588.44;;;19.39;75.94
48606;BME280;8482;54.396;18.590;2022-07-03T23:21:06;101600.22;;;19.38;76.01
48606;BME280;8482;54.396;18.590;2022-07-03T23:23:32;101596.97;;;19.34;75.92
48606;BME280;8482;54.396;18.590;2022-07-03T23:25:58;101601.53;;;19.34;76.20
48606;BME280;8482;54.396;18.590;2022-07-03T23:28:24;101586.56;;;19.31;76.21
48606;BME280;8482;54.396;18.590;2022-07-03T23:30:50;101591.94;;;19.31;76.43
48606;BME280;8482;54.396;18.590;2022-07-03T23:33:16;101591.09;;;19.30;76.55
48606;BME280;8482;54.396;18.590;2022-07-03T23:35:42;101594.94;;;19.28;76.62
48606;BME280;8482;54.396;18.590;2022-07-03T23:38:08;101590.56;;;19.27;76.62
48606;BME280;8482;54.396;18.590;2022-07-03T23:40:34;101590.56;;;19.27;76.69
48606;BME280;8482;54.396;18.590;2022-07-03T23:42:59;101581.97;;;19.23;76.43
48606;BME280;8482;54.396;18.590;2022-07-03T23:45:26;101586.66;;;19.21;76.45
48606;BME280;8482;54.396;18.590;2022-07-03T23:47:52;101586.97;;;19.18;76.23
48606;BME280;8482;54.396;18.590;2022-07-03T23:50:18;101588.28;;;19.14;76.41
48606;BME280;8482;54.396;18.590;2022-07-03T23:53:04;101580.38;;;19.12;76.76
48606;BME280;8482;54.396;18.590;2022-07-03T23:55:29;101579.56;;;19.12;76.98
48606;BME280;8482;54.396;18.590;2022-07-03T23:57:55;101571.47;;;19.12;77.50
